createdAt,value
2023-04-18T00:01:19.167Z,4.00
2023-04-18T00:03:47.212Z,4.33
2023-04-18T00:06:15.189Z,4.30
2023-04-18T00:08:43.010Z,3.77
2023-04-18T00:11:12.134Z,3.97
2023-04-18T00:13:41.072Z,4.00
2023-04-18T00:16:09.890Z,4.17
2023-04-18T00:18:37.685Z,4.67
2023-04-18T00:21:06.413Z,4.33
2023-04-18T00:23:35.105Z,4.83
2023-04-18T00:26:03.438Z,4.20
2023-04-18T00:28:32.651Z,4.20
2023-04-18T00:31:00.527Z,4.43
2023-04-18T00:33:28.476Z,5.00
2023-04-18T00:35:56.267Z,5.17
2023-04-18T00:38:24.100Z,4.53
2023-04-18T00:40:51.954Z,4.60
2023-04-18T00:43:19.728Z,4.80
2023-04-18T00:45:48.882Z,5.13
2023-04-18T00:48:17.150Z,4.90
2023-04-18T00:50:46.127Z,4.80
2023-04-18T00:53:14.802Z,4.70
2023-04-18T00:55:42.814Z,4.70
2023-04-18T00:58:10.666Z,5.17
2023-04-18T01:00:38.585Z,4.60
2023-04-18T01:03:08.507Z,5.10
2023-04-18T01:05:37.152Z,5.40
2023-04-18T01:08:05.393Z,5.23
2023-04-18T01:10:33.277Z,5.70
2023-04-18T01:13:14.436Z,5.17
2023-04-18T01:15:43.568Z,5.80
2023-04-18T01:18:16.950Z,5.80
2023-04-18T01:20:47.708Z,6.87
2023-04-18T01:23:16.167Z,5.27
2023-04-18T01:25:46.426Z,5.33
2023-04-18T01:28:15.229Z,5.50
2023-04-18T01:30:43.138Z,5.93
2023-04-18T01:33:11.035Z,6.50
2023-04-18T01:35:39.006Z,6.27
2023-04-18T01:38:06.792Z,6.33
2023-04-18T01:40:34.593Z,6.27
2023-04-18T01:43:03.744Z,6.30
2023-04-18T01:45:31.576Z,6.30
2023-04-18T01:47:59.508Z,7.17
2023-04-18T01:50:27.340Z,7.17
2023-04-18T01:52:55.141Z,6.73
2023-04-18T01:55:22.959Z,7.17
2023-04-18T01:57:51.684Z,7.27
2023-04-18T02:00:22.170Z,7.30
2023-04-18T02:02:50.995Z,8.90
2023-04-18T02:05:18.939Z,8.53
2023-04-18T02:07:47.637Z,7.43
2023-04-18T02:10:15.447Z,9.03
2023-04-18T02:12:43.193Z,9.07
2023-04-18T02:15:11.881Z,9.43
2023-04-18T02:17:41.422Z,9.93
2023-04-18T02:20:10.725Z,10.87
2023-04-18T02:22:39.392Z,10.37
2023-04-18T02:25:07.877Z,10.17
2023-04-18T02:27:35.729Z,8.53
2023-04-18T02:30:03.564Z,10.77
2023-04-18T02:32:31.366Z,10.30
2023-04-18T02:35:00.466Z,9.70
2023-04-18T02:37:28.274Z,9.90
2023-04-18T02:39:56.463Z,10.13
2023-04-18T02:42:24.256Z,8.50
2023-04-18T02:44:52.063Z,10.20
2023-04-18T02:47:19.846Z,9.97
2023-04-18T02:49:47.634Z,10.90
2023-04-18T02:52:16.727Z,9.90
2023-04-18T02:54:44.518Z,10.37
2023-04-18T02:57:12.265Z,11.70
2023-04-18T02:59:40.111Z,9.93
2023-04-18T03:02:07.986Z,11.77
2023-04-18T03:04:36.005Z,10.37
2023-04-18T03:07:03.816Z,10.80
2023-04-18T03:09:32.964Z,9.77
2023-04-18T03:12:02.041Z,10.77
2023-04-18T03:14:29.807Z,10.63
2023-04-18T03:16:57.697Z,11.07
2023-04-18T03:19:25.551Z,11.23
2023-04-18T03:21:53.445Z,10.67
2023-04-18T03:24:21.250Z,11.10
2023-04-18T03:26:50.415Z,11.00
2023-04-18T03:29:18.187Z,11.60
2023-04-18T03:31:46.092Z,12.07
2023-04-18T03:34:14.045Z,12.27
2023-04-18T03:36:42.169Z,11.63
2023-04-18T03:39:09.922Z,10.73
2023-04-18T03:41:37.690Z,11.97
2023-04-18T03:44:07.046Z,11.70
2023-04-18T03:46:34.878Z,11.00
2023-04-18T03:49:02.763Z,11.90
2023-04-18T03:51:33.970Z,12.33
2023-04-18T03:54:01.795Z,12.37
2023-04-18T03:56:29.592Z,11.57
2023-04-18T03:58:58.608Z,12.63
2023-04-18T04:01:27.902Z,11.00
2023-04-18T04:03:55.831Z,12.17
2023-04-18T04:06:23.939Z,10.87
2023-04-18T04:08:51.727Z,11.20
2023-04-18T04:11:19.635Z,11.50
2023-04-18T04:13:47.383Z,11.17
2023-04-18T04:16:15.339Z,10.57
2023-04-18T04:18:44.784Z,11.83
2023-04-18T04:21:12.547Z,11.70
2023-04-18T04:23:42.061Z,12.60
2023-04-18T04:26:10.142Z,11.90
2023-04-18T04:28:39.839Z,14.17
2023-04-18T04:31:08.433Z,13.03
2023-04-18T04:33:38.848Z,11.93
2023-04-18T04:36:08.970Z,13.50
2023-04-18T04:38:38.320Z,12.77
2023-04-18T04:41:07.659Z,11.80
2023-04-18T04:43:35.800Z,12.50
2023-04-18T04:46:04.104Z,12.80
2023-04-18T04:48:31.900Z,12.30
2023-04-18T04:51:01.087Z,12.63
2023-04-18T04:53:31.287Z,12.53
2023-04-18T04:55:59.310Z,11.47
2023-04-18T04:58:27.601Z,12.83
2023-04-18T05:00:55.609Z,12.10
2023-04-18T05:03:23.814Z,11.80
2023-04-18T05:05:51.719Z,12.13
2023-04-18T05:08:19.711Z,12.73
2023-04-18T05:10:49.992Z,12.13
2023-04-18T05:13:18.018Z,11.60
2023-04-18T05:15:45.843Z,12.50
2023-04-18T05:18:14.283Z,11.90
2023-04-18T05:20:42.163Z,12.27
2023-04-18T05:23:09.983Z,13.80
2023-04-18T05:25:37.879Z,13.03
2023-04-18T05:28:08.267Z,12.23
2023-04-18T05:30:36.165Z,13.20
2023-04-18T05:33:04.248Z,12.90
2023-04-18T05:35:32.352Z,14.13
2023-04-18T05:38:00.180Z,10.90
2023-04-18T05:40:28.229Z,12.83
2023-04-18T05:42:55.999Z,12.40
2023-04-18T05:45:25.165Z,14.67
2023-04-18T05:47:54.400Z,12.00
2023-04-18T05:50:23.103Z,13.80
2023-04-18T05:52:50.863Z,13.40
2023-04-18T05:55:19.008Z,13.50
2023-04-18T05:57:46.826Z,15.10
2023-04-18T06:00:17.055Z,14.40
2023-04-18T06:02:46.475Z,12.87
2023-04-18T06:05:14.703Z,13.30
2023-04-18T06:07:42.667Z,13.07
2023-04-18T06:10:13.233Z,13.37
2023-04-18T06:12:41.248Z,13.80
2023-04-18T06:15:10.509Z,12.37
2023-04-18T06:17:38.288Z,12.73
2023-04-18T06:20:10.961Z,13.27
2023-04-18T06:22:38.705Z,14.40
2023-04-18T06:25:08.682Z,12.83
2023-04-18T06:27:36.651Z,13.40
2023-04-18T06:30:05.485Z,13.90
2023-04-18T06:32:33.291Z,15.57
2023-04-18T06:35:01.181Z,13.33
2023-04-18T06:37:30.462Z,15.10
2023-04-18T06:39:59.747Z,14.90
2023-04-18T06:42:27.608Z,16.80
2023-04-18T06:44:55.759Z,12.90
2023-04-18T06:47:23.974Z,14.67
2023-04-18T06:49:51.759Z,13.97
2023-04-18T06:52:19.543Z,13.47
2023-04-18T06:54:48.722Z,13.37
2023-04-18T06:57:16.779Z,13.27
2023-04-18T06:59:44.586Z,14.03
2023-04-18T07:02:12.487Z,14.17
2023-04-18T07:04:40.439Z,13.20
2023-04-18T07:07:08.291Z,13.27
2023-04-18T07:09:36.087Z,13.17
2023-04-18T07:12:05.416Z,13.90
2023-04-18T07:14:34.301Z,11.60
2023-04-18T07:17:02.707Z,11.67
2023-04-18T07:19:30.479Z,12.70
2023-04-18T07:21:58.315Z,11.10
2023-04-18T07:24:26.228Z,12.53
2023-04-18T07:26:55.223Z,12.00
2023-04-18T07:29:24.462Z,11.47
2023-04-18T07:31:53.478Z,10.97
2023-04-18T07:34:21.922Z,12.50
2023-04-18T07:36:49.971Z,11.80
2023-04-18T07:39:17.792Z,11.97
2023-04-18T07:41:45.559Z,12.20
2023-04-18T07:44:13.517Z,12.40
2023-04-18T07:46:42.988Z,11.30
2023-04-18T07:49:10.911Z,12.00
2023-04-18T07:51:38.815Z,12.03
2023-04-18T07:54:06.688Z,11.23
2023-04-18T07:56:34.637Z,9.80
2023-04-18T07:59:02.565Z,11.47
2023-04-18T08:01:30.893Z,10.40
2023-04-18T08:04:01.799Z,10.70
2023-04-18T08:06:30.071Z,11.27
2023-04-18T08:08:59.010Z,11.30
2023-04-18T08:11:26.955Z,11.50
2023-04-18T08:13:54.723Z,11.27
2023-04-18T08:16:22.553Z,11.13
2023-04-18T08:18:50.466Z,12.63
2023-04-18T08:21:19.905Z,12.50
2023-04-18T08:23:47.722Z,12.10
2023-04-18T08:26:15.678Z,10.93
2023-04-18T08:28:46.300Z,12.60
2023-04-18T08:31:14.998Z,12.53
2023-04-18T08:33:43.362Z,13.27
2023-04-18T08:36:12.281Z,13.60
2023-04-18T08:38:41.441Z,10.00
2023-04-18T08:41:09.655Z,11.63
2023-04-18T08:43:38.910Z,11.97
2023-04-18T08:46:07.838Z,9.77
2023-04-18T08:48:36.742Z,11.20
2023-04-18T08:51:05.254Z,9.20
2023-04-18T08:53:35.139Z,10.57
2023-04-18T08:56:05.273Z,11.40
2023-04-18T08:58:34.137Z,8.53
2023-04-18T09:01:02.233Z,10.90
2023-04-18T09:03:40.936Z,10.13
2023-04-18T09:06:13.630Z,11.07
2023-04-18T09:08:43.443Z,12.10
2023-04-18T09:11:29.786Z,10.33
2023-04-18T09:13:58.802Z,10.83
2023-04-18T09:16:29.143Z,12.60
2023-04-18T09:19:11.988Z,10.20
2023-04-18T09:21:41.641Z,10.43
2023-04-18T09:24:24.019Z,9.40
2023-04-18T09:26:55.742Z,10.10
2023-04-18T09:29:42.048Z,9.87
2023-04-18T09:32:09.815Z,10.07
2023-04-18T09:34:43.357Z,9.50
2023-04-18T09:37:13.228Z,10.87
2023-04-18T09:39:44.178Z,10.37
2023-04-18T09:42:13.725Z,10.23
2023-04-18T09:45:00.275Z,9.07
2023-04-18T09:47:28.780Z,10.00
2023-04-18T09:49:56.876Z,9.43
2023-04-18T09:52:26.483Z,9.83
2023-04-18T09:54:58.480Z,10.17
2023-04-18T09:57:31.312Z,9.60
2023-04-18T10:00:10.639Z,9.70
2023-04-18T10:02:49.076Z,9.23
2023-04-18T10:05:20.755Z,10.20
2023-04-18T10:07:51.067Z,10.20
2023-04-18T10:10:19.195Z,9.60
2023-04-18T10:12:50.608Z,8.90
2023-04-18T10:15:20.737Z,8.73
2023-04-18T10:18:03.554Z,9.00
2023-04-18T10:20:34.813Z,10.60
2023-04-18T10:23:35.669Z,9.20
2023-04-18T10:26:06.064Z,8.43
2023-04-18T10:28:52.875Z,9.90
2023-04-18T10:31:22.517Z,8.77
2023-04-18T10:34:03.079Z,9.30
2023-04-18T10:36:32.895Z,8.00
2023-04-18T10:39:03.762Z,8.13
2023-04-18T10:41:34.594Z,8.90
2023-04-18T10:44:14.417Z,8.57
2023-04-18T10:46:44.126Z,8.43
2023-04-18T10:49:16.357Z,8.70
2023-04-18T10:51:44.436Z,7.90
2023-04-18T10:54:15.668Z,7.20
2023-04-18T10:56:54.611Z,8.67
2023-04-18T10:59:24.050Z,7.20
2023-04-18T11:01:56.433Z,7.90
2023-04-18T11:04:25.154Z,8.17
2023-04-18T11:06:54.894Z,7.67
2023-04-18T11:09:22.703Z,8.10
2023-04-18T11:12:07.337Z,7.70
2023-04-18T11:14:42.134Z,7.47
2023-04-18T11:17:18.117Z,7.80
2023-04-18T11:19:46.329Z,7.10
2023-04-18T11:22:15.345Z,6.90
2023-04-18T11:24:43.265Z,7.37
2023-04-18T11:27:13.382Z,8.63
2023-04-18T11:29:41.325Z,8.00
2023-04-18T11:32:10.199Z,7.80
2023-04-18T11:34:38.026Z,8.00
2023-04-18T11:37:08.479Z,7.47
2023-04-18T11:39:37.029Z,8.07
2023-04-18T11:42:05.844Z,7.40
2023-04-18T11:44:36.342Z,8.37
2023-04-18T11:47:04.246Z,7.63
2023-04-18T11:49:33.329Z,8.00
2023-04-18T11:52:01.510Z,7.63
2023-04-18T11:54:42.569Z,7.93
2023-04-18T11:57:21.499Z,7.97
2023-04-18T11:59:52.174Z,8.43
2023-04-18T12:02:21.085Z,7.40
2023-04-18T12:04:58.299Z,7.50
2023-04-18T12:07:37.253Z,7.33
2023-04-18T12:10:07.165Z,6.83
2023-04-18T12:12:35.830Z,7.07
2023-04-18T12:15:08.288Z,6.10
2023-04-18T12:17:37.946Z,7.13
2023-04-18T12:20:08.527Z,7.10
2023-04-18T12:22:41.780Z,8.03
2023-04-18T12:25:13.726Z,6.40
2023-04-18T12:27:55.769Z,6.17
2023-04-18T12:30:26.746Z,6.83
2023-04-18T12:32:55.807Z,6.70
2023-04-18T12:35:24.541Z,6.80
2023-04-18T12:37:53.664Z,6.40
2023-04-18T12:40:22.854Z,7.00
2023-04-18T12:42:51.994Z,6.83
2023-04-18T12:45:21.646Z,6.90
2023-04-18T12:47:52.259Z,6.10
2023-04-18T12:50:21.753Z,5.37
2023-04-18T12:52:50.308Z,4.70
2023-04-18T12:55:18.110Z,4.80
2023-04-18T12:57:45.965Z,4.93
2023-04-18T13:00:14.788Z,4.80
2023-04-18T13:02:44.129Z,5.27
2023-04-18T13:05:16.576Z,5.07
2023-04-18T13:07:44.738Z,4.60
2023-04-18T13:10:14.311Z,5.80
2023-04-18T13:12:42.393Z,4.50
2023-04-18T13:15:10.928Z,5.97
2023-04-18T13:17:39.402Z,5.20
2023-04-18T13:20:10.402Z,5.90
2023-04-18T13:22:39.752Z,6.40
2023-04-18T13:25:10.392Z,5.77
2023-04-18T13:27:40.929Z,5.37
2023-04-18T13:30:11.434Z,6.20
2023-04-18T13:32:42.670Z,4.67
2023-04-18T13:35:11.613Z,6.03
2023-04-18T13:37:41.156Z,5.50
2023-04-18T13:40:10.070Z,4.47
2023-04-18T13:42:39.361Z,5.57
2023-04-18T13:45:08.123Z,5.90
2023-04-18T13:47:36.522Z,6.23
2023-04-18T13:50:04.401Z,6.07
2023-04-18T13:52:32.275Z,6.20
2023-04-18T13:55:01.540Z,6.50
2023-04-18T13:57:31.927Z,5.30
2023-04-18T13:59:59.898Z,5.73
2023-04-18T14:02:27.865Z,6.57
2023-04-18T14:04:55.946Z,6.60
2023-04-18T14:07:23.804Z,7.77
2023-04-18T14:09:53.742Z,5.80
2023-04-18T14:12:23.140Z,6.40
2023-04-18T14:14:50.941Z,6.17
2023-04-18T14:17:18.841Z,6.00
2023-04-18T14:19:46.627Z,5.13
2023-04-18T14:22:14.405Z,4.97
2023-04-18T14:24:42.134Z,6.13
2023-04-18T14:27:09.921Z,5.57
2023-04-18T14:29:39.150Z,5.87
2023-04-18T14:32:07.839Z,4.73
2023-04-18T14:34:36.779Z,4.57
2023-04-18T14:37:06.170Z,4.90
2023-04-18T14:39:34.016Z,5.30
2023-04-18T14:42:01.875Z,5.70
2023-04-18T14:44:30.626Z,5.13
2023-04-18T14:47:01.352Z,6.10
2023-04-18T14:49:29.274Z,5.20
2023-04-18T14:51:57.307Z,5.93
2023-04-18T14:54:25.106Z,8.10
2023-04-18T14:56:52.864Z,6.60
2023-04-18T14:59:20.911Z,6.27
2023-04-18T15:01:48.854Z,7.03
2023-04-18T15:04:18.268Z,5.83
2023-04-18T15:06:46.353Z,7.07
2023-04-18T15:09:15.886Z,7.10
2023-04-18T15:11:43.640Z,7.00
2023-04-18T15:14:11.440Z,6.73
2023-04-18T15:16:40.682Z,6.57
2023-04-18T15:19:08.523Z,6.90
2023-04-18T15:21:37.615Z,7.70
2023-04-18T15:24:05.853Z,6.90
2023-04-18T15:26:33.622Z,6.67
2023-04-18T15:29:03.648Z,7.70
2023-04-18T15:31:31.554Z,7.77
2023-04-18T15:33:59.462Z,7.57
2023-04-18T15:36:27.875Z,7.37
2023-04-18T15:38:56.966Z,6.97
2023-04-18T15:41:24.840Z,7.00
2023-04-18T15:43:53.696Z,6.67
2023-04-18T15:46:22.006Z,7.23
2023-04-18T15:48:49.839Z,6.90
2023-04-18T15:51:17.820Z,6.53
2023-04-18T15:53:45.565Z,6.67
2023-04-18T15:56:14.880Z,7.63
2023-04-18T15:58:42.612Z,7.10
2023-04-18T16:01:13.069Z,6.90
2023-04-18T16:03:40.970Z,6.90
2023-04-18T16:06:09.829Z,5.73
2023-04-18T16:08:38.117Z,6.03
2023-04-18T16:11:05.981Z,6.20
2023-04-18T16:13:38.276Z,6.13
2023-04-18T16:16:07.040Z,5.80
2023-04-18T16:18:34.910Z,5.33
2023-04-18T16:21:03.060Z,4.77
2023-04-18T16:23:32.319Z,5.03
2023-04-18T16:26:00.060Z,4.63
2023-04-18T16:28:27.921Z,5.13
2023-04-18T16:30:57.016Z,4.80
2023-04-18T16:33:26.098Z,5.10
2023-04-18T16:35:54.116Z,5.37
2023-04-18T16:38:23.450Z,5.77
2023-04-18T16:40:51.373Z,5.20
2023-04-18T16:43:19.116Z,5.33
2023-04-18T16:45:46.888Z,5.43
2023-04-18T16:48:16.333Z,5.50
2023-04-18T16:50:45.577Z,6.27
2023-04-18T16:53:13.549Z,6.53
2023-04-18T16:55:42.884Z,5.67
2023-04-18T16:58:11.131Z,6.40
2023-04-18T17:00:39.056Z,6.80
2023-04-18T17:03:07.743Z,7.03
2023-04-18T17:05:36.958Z,6.30
2023-04-18T17:08:04.976Z,6.43
2023-04-18T17:10:33.295Z,7.23
2023-04-18T17:13:02.576Z,5.90
2023-04-18T17:15:30.679Z,6.63
2023-04-18T17:18:00.335Z,7.57
2023-04-18T17:20:28.992Z,7.50
2023-04-18T17:22:58.212Z,6.47
2023-04-18T17:25:26.029Z,7.17
2023-04-18T17:27:53.808Z,6.40
2023-04-18T17:30:21.826Z,6.17
2023-04-18T17:32:51.045Z,5.07
2023-04-18T17:35:19.003Z,5.00
2023-04-18T17:37:47.604Z,6.67
2023-04-18T17:40:16.866Z,6.53
2023-04-18T17:42:44.761Z,6.03
2023-04-18T17:45:12.533Z,6.10
2023-04-18T17:47:40.781Z,6.40
2023-04-18T17:50:09.467Z,6.30
2023-04-18T17:52:37.261Z,6.50
2023-04-18T17:55:05.746Z,6.40
2023-04-18T17:57:35.365Z,5.30
2023-04-18T18:00:07.138Z,6.43
2023-04-18T18:02:35.016Z,5.40
2023-04-18T18:05:02.822Z,6.63
2023-04-18T18:07:34.596Z,6.03
2023-04-18T18:10:02.818Z,6.40
2023-04-18T18:12:30.716Z,5.80
2023-04-18T18:14:59.904Z,5.90
2023-04-18T18:17:28.597Z,5.93
2023-04-18T18:19:56.333Z,6.30
2023-04-18T18:22:25.875Z,6.70
2023-04-18T18:24:53.683Z,6.20
2023-04-18T18:27:21.639Z,5.87
2023-04-18T18:29:50.340Z,5.90
2023-04-18T18:32:20.353Z,5.93
2023-04-18T18:34:48.095Z,6.10
2023-04-18T18:37:16.252Z,6.30
2023-04-18T18:39:44.028Z,6.70
2023-04-18T18:42:11.795Z,6.30
2023-04-18T18:44:39.625Z,7.07
2023-04-18T18:47:07.525Z,6.53
2023-04-18T18:49:37.153Z,5.70
2023-04-18T18:52:05.386Z,6.33
2023-04-18T18:54:33.189Z,6.13
2023-04-18T18:57:02.513Z,6.23
2023-04-18T18:59:30.507Z,6.90
2023-04-18T19:01:58.317Z,6.30
2023-04-18T19:04:26.410Z,6.30
2023-04-18T19:06:55.708Z,7.00
2023-04-18T19:09:23.490Z,7.73
2023-04-18T19:11:51.501Z,7.57
2023-04-18T19:14:19.320Z,6.23
2023-04-18T19:16:47.198Z,8.07
2023-04-18T19:19:17.193Z,8.37
2023-04-18T19:21:45.896Z,7.40
2023-04-18T19:24:15.114Z,8.07
2023-04-18T19:26:43.304Z,9.10
2023-04-18T19:29:11.451Z,7.37
2023-04-18T19:31:39.300Z,9.20
2023-04-18T19:34:07.078Z,7.70
2023-04-18T19:36:34.856Z,7.23
2023-04-18T19:39:02.630Z,7.70
2023-04-18T19:41:31.745Z,7.87
2023-04-18T19:43:59.512Z,7.83
2023-04-18T19:46:27.328Z,8.47
2023-04-18T19:48:55.143Z,7.60
2023-04-18T19:51:22.970Z,7.40
2023-04-18T19:53:50.859Z,7.60
2023-04-18T19:56:18.573Z,7.03
2023-04-18T19:58:48.926Z,6.80
2023-04-18T20:01:18.241Z,6.60
2023-04-18T20:03:47.020Z,7.70
2023-04-18T20:06:15.010Z,7.87
2023-04-18T20:08:42.795Z,6.40
2023-04-18T20:11:12.070Z,6.40
2023-04-18T20:13:40.183Z,7.80
2023-04-18T20:16:10.906Z,6.93
2023-04-18T20:18:40.121Z,8.03
2023-04-18T20:21:09.802Z,7.23
2023-04-18T20:23:38.288Z,6.80
2023-04-18T20:26:06.202Z,7.67
2023-04-18T20:28:34.034Z,7.63
2023-04-18T20:31:02.409Z,7.17
2023-04-18T20:33:31.642Z,7.60
2023-04-18T20:35:59.962Z,8.30
2023-04-18T20:38:29.325Z,7.23
2023-04-18T20:40:57.960Z,6.20
2023-04-18T20:43:25.776Z,7.20
2023-04-18T20:45:54.273Z,7.03
2023-04-18T20:48:25.010Z,7.60
2023-04-18T20:50:54.257Z,7.00
2023-04-18T20:53:25.908Z,6.73
2023-04-18T20:55:53.926Z,6.87
2023-04-18T20:58:21.760Z,7.30
2023-04-18T21:00:49.614Z,7.47
2023-04-18T21:03:18.087Z,6.17
2023-04-18T21:05:46.176Z,7.10
2023-04-18T21:08:15.632Z,7.43
2023-04-18T21:10:43.396Z,7.40
2023-04-18T21:13:12.454Z,7.47
2023-04-18T21:15:41.810Z,7.00
2023-04-18T21:18:09.904Z,7.23
2023-04-18T21:20:37.747Z,7.40
2023-04-18T21:23:05.544Z,8.13
2023-04-18T21:25:34.971Z,7.70
2023-04-18T21:28:02.935Z,7.80
2023-04-18T21:30:30.879Z,6.73
2023-04-18T21:32:58.862Z,7.20
2023-04-18T21:35:26.694Z,7.37
2023-04-18T21:37:54.468Z,7.03
2023-04-18T21:40:22.491Z,7.20
2023-04-18T21:42:51.774Z,7.17
2023-04-18T21:45:19.719Z,7.57
2023-04-18T21:47:47.556Z,7.10
2023-04-18T21:50:15.482Z,7.03
2023-04-18T21:52:43.321Z,7.30
2023-04-18T21:55:11.180Z,7.90
2023-04-18T21:57:38.932Z,7.00
2023-04-18T22:00:10.647Z,7.27
2023-04-18T22:02:38.670Z,6.80
2023-04-18T22:05:08.680Z,6.23
2023-04-18T22:07:46.691Z,6.20
2023-04-18T22:10:24.931Z,7.13
2023-04-18T22:12:53.927Z,6.70
2023-04-18T22:15:23.629Z,7.27
2023-04-18T22:17:51.416Z,6.33
2023-04-18T22:20:19.432Z,6.97
2023-04-18T22:22:47.162Z,6.77
2023-04-18T22:25:15.006Z,5.67
2023-04-18T22:27:43.628Z,6.57
2023-04-18T22:30:12.383Z,6.33
2023-04-18T22:32:41.652Z,7.00
2023-04-18T22:35:10.478Z,5.87
2023-04-18T22:37:38.279Z,6.67
2023-04-18T22:40:07.292Z,5.77
2023-04-18T22:42:37.254Z,6.30
2023-04-18T22:45:07.831Z,7.20
2023-04-18T22:47:35.819Z,6.03
2023-04-18T22:50:05.524Z,6.77
2023-04-18T22:52:33.400Z,6.30
2023-04-18T22:55:02.559Z,6.57
2023-04-18T22:57:30.490Z,5.53
2023-04-18T23:02:40.768Z,6.10
2023-04-18T23:05:11.484Z,5.77
2023-04-18T23:07:39.312Z,6.50
2023-04-18T23:10:08.594Z,6.33
2023-04-18T23:12:36.449Z,5.50
2023-04-18T23:15:04.435Z,5.77
2023-04-18T23:17:32.209Z,5.40
2023-04-18T23:20:00.009Z,6.53
2023-04-18T23:22:29.934Z,5.33
2023-04-18T23:24:57.710Z,5.60
2023-04-18T23:27:25.526Z,5.63
2023-04-18T23:29:53.414Z,5.37
2023-04-18T23:32:21.340Z,6.07
2023-04-18T23:34:49.192Z,5.53
2023-04-18T23:37:17.015Z,4.53
2023-04-18T23:39:46.143Z,6.40
2023-04-18T23:42:13.908Z,5.83
2023-04-18T23:44:41.669Z,5.67
2023-04-18T23:47:09.585Z,5.97
2023-04-18T23:49:37.442Z,5.07
2023-04-18T23:52:05.454Z,5.53
2023-04-18T23:54:33.241Z,6.00
2023-04-18T23:57:02.524Z,5.30
2023-04-18T23:59:30.279Z,5.73
